Time;durP1;ratioP1;P1;durP2;ratioP2;P2;SDS_P1;SDS_P2;PMS_P1;PMS_P2;Temp;Humidity;BMP_temperature;BMP_pressure;BME280_temperature;BME280_humidity;BME280_pressure;Samples;Min_cycle;Max_cycle;Signal;HPM_P1;HPM_P2
2021/11/17 02:27:06;;;;;;;22.83;15.43;;;;;;;;;;5039815;28;20448;-73
2021/11/17 02:29:54;;;;;;;27.63;16.23;;;;;;;;;;5055206;28;20065;-72
2021/11/17 02:32:20;;;;;;;28.23;17.08;;;;;;;;;;5055237;28;20037;-72
2021/11/17 02:34:47;;;;;;;24.30;16.33;;;;;;;;;;5055218;28;20092;-72
2021/11/17 02:37:19;;;;;;;24.95;16.80;;;;;;;;;;5037195;28;20064;-72
2021/11/17 02:39:58;;;;;;;24.92;16.48;;;;;;;;;;5055221;28;20116;-72
2021/11/17 02:42:31;;;;;;;28.10;16.45;;;;;;;;;;5037524;28;20039;-74
2021/11/17 02:45:00;;;;;;;25.17;15.65;;;;;;;;;;5037205;28;20454;-74
2021/11/17 02:47:48;;;;;;;35.67;18.55;;;;;;;;;;5055096;28;20060;-74
2021/11/17 02:50:29;;;;;;;31.85;18.17;;;;;;;;;;5054819;28;20092;-74
2021/11/17 02:52:55;;;;;;;34.55;21.13;;;;;;;;;;5055095;28;20091;-74
2021/11/17 02:55:39;;;;;;;39.38;21.35;;;;;;;;;;5054964;28;20029;-74
2021/11/17 02:58:04;;;;;;;29.23;18.05;;;;;;;;;;5036776;28;20037;-74
2021/11/17 03:00:33;;;;;;;29.80;17.23;;;;;;;;;;5054672;28;20059;-74
2021/11/17 03:03:20;;;;;;;23.33;15.57;;;;;;;;;;5037102;28;20037;-74
2021/11/17 03:06:04;;;;;;;21.80;15.18;;;;;;;;;;5054723;28;20068;-74
2021/11/17 03:08:37;;;;;;;23.13;14.85;;;;;;;;;;5054364;28;20068;-75
2021/11/17 03:11:21;;;;;;;28.67;16.00;;;;;;;;;;5036519;28;20099;-75
2021/11/17 03:14:02;;;;;;;26.88;16.58;;;;;;;;;;5054387;28;20599;-75
2021/11/17 03:16:45;;;;;;;26.20;16.40;;;;;;;;;;5053980;28;20040;-75
2021/11/17 03:19:25;;;;;;;25.45;15.52;;;;;;;;;;5036462;28;20045;-75
2021/11/17 03:21:52;;;;;;;24.53;15.67;;;;;;;;;;5036534;28;20132;-74
2021/11/17 03:24:21;;;;;;;23.02;15.32;;;;;;;;;;5054573;28;20457;-73
2021/11/17 03:27:01;;;;;;;23.73;15.00;;;;;;;;;;5054089;28;20037;-73
2021/11/17 03:29:33;;;;;;;23.08;15.73;;;;;;;;;;5053900;28;20083;-73
2021/11/17 03:32:07;;;;;;;21.73;14.20;;;;;;;;;;5036001;28;20037;-73
2021/11/17 03:34:58;;;;;;;23.35;15.20;;;;;;;;;;5054105;28;20508;-75
2021/11/17 03:37:23;;;;;;;24.73;15.70;;;;;;;;;;5036293;28;20037;-73
2021/11/17 03:40:10;;;;;;;20.90;13.60;;;;;;;;;;5054047;28;20036;-73
2021/11/17 03:42:38;;;;;;;21.95;14.30;;;;;;;;;;5053761;28;20500;-73
2021/11/17 03:45:13;;;;;;;20.35;13.77;;;;;;;;;;5053504;28;20036;-74
2021/11/17 03:47:57;;;;;;;21.65;14.38;;;;;;;;;;5036773;28;20442;-74
2021/11/17 03:50:31;;;;;;;24.42;16.38;;;;;;;;;;5053569;28;20047;-74
2021/11/17 03:53:17;;;;;;;27.02;16.85;;;;;;;;;;5035797;28;20033;-75
2021/11/17 03:55:50;;;;;;;36.22;19.63;;;;;;;;;;5053417;28;20063;-75
2021/11/17 03:58:35;;;;;;;24.33;15.93;;;;;;;;;;5053301;28;20033;-75
2021/11/17 04:01:13;;;;;;;22.35;15.05;;;;;;;;;;5035600;28;20480;-76
2021/11/17 04:03:45;;;;;;;28.33;17.50;;;;;;;;;;5053608;28;20041;-75
2021/11/17 04:06:20;;;;;;;42.42;23.85;;;;;;;;;;5035991;28;20527;-75
2021/11/17 04:08:53;;;;;;;45.33;24.67;;;;;;;;;;5053236;28;20041;-75
2021/11/17 04:11:42;;;;;;;105.60;58.80;;;;;;;;;;5035927;28;20069;-73
2021/11/17 04:14:14;;;;;;;134.15;95.25;;;;;;;;;;5042585;28;20556;-74
2021/11/17 04:16:40;;;;;;;48.08;34.67;;;;;;;;;;5053181;28;20059;-74
2021/11/17 04:19:45;;;;;;;30.83;20.02;;;;;;;;;;5035759;28;20028;-74
2021/11/17 04:22:20;;;;;;;24.02;15.30;;;;;;;;;;4956581;28;20045;-75
2021/11/17 04:25:13;;;;;;;26.55;18.10;;;;;;;;;;4972337;28;20527;-75
2021/11/17 04:27:47;;;;;;;26.08;18.10;;;;;;;;;;5030124;28;20033;-76
2021/11/17 04:30:33;;;;;;;33.13;20.75;;;;;;;;;;5035534;28;20032;-73
2021/11/17 04:33:05;;;;;;;33.78;19.88;;;;;;;;;;5034688;28;20029;-74
2021/11/17 04:35:57;;;;;;;33.17;19.23;;;;;;;;;;5035791;28;20037;-74
2021/11/17 04:38:24;;;;;;;28.08;18.42;;;;;;;;;;4972526;28;20089;-74
2021/11/17 04:41:03;;;;;;;30.98;18.98;;;;;;;;;;5049053;28;20044;-73
2021/11/17 04:43:49;;;;;;;32.33;19.88;;;;;;;;;;5053366;28;20397;-73
2021/11/17 04:46:33;;;;;;;29.02;19.45;;;;;;;;;;5039013;28;20044;-73
2021/11/17 04:49:06;;;;;;;28.67;18.30;;;;;;;;;;5056916;28;20067;-73
2021/11/17 04:51:41;;;;;;;27.08;18.38;;;;;;;;;;5057236;28;20044;-74
2021/11/17 04:54:26;;;;;;;32.22;20.25;;;;;;;;;;5039772;28;20083;-73
2021/11/17 04:57:07;;;;;;;32.17;20.23;;;;;;;;;;5038976;28;20485;-73
2021/11/17 04:59:36;;;;;;;23.25;16.25;;;;;;;;;;5056920;28;20037;-75
2021/11/17 05:02:11;;;;;;;26.48;18.10;;;;;;;;;;5056753;28;20025;-76
2021/11/17 05:04:44;;;;;;;24.63;17.42;;;;;;;;;;5056629;28;20033;-75
2021/11/17 05:07:29;;;;;;;24.13;16.63;;;;;;;;;;5038569;28;20047;-74
2021/11/17 05:09:58;;;;;;;24.92;16.48;;;;;;;;;;5022541;28;20049;-74
2021/11/17 05:12:27;;;;;;;24.48;17.50;;;;;;;;;;5056537;28;20091;-73
2021/11/17 05:14:58;;;;;;;25.10;15.85;;;;;;;;;;5022082;28;20044;-77
2021/11/17 05:20:12;;;;;;;24.20;16.13;;;;;;;;;;5056081;28;20079;-76
2021/11/17 05:23:01;;;;;;;24.42;16.35;;;;;;;;;;5038359;28;20113;-76
2021/11/17 05:25:40;;;;;;;25.85;16.60;;;;;;;;;;4975647;28;20031;-77
2021/11/17 05:28:25;;;;;;;27.80;16.70;;;;;;;;;;5053130;28;20041;-76
2021/11/17 05:31:07;;;;;;;23.75;15.82;;;;;;;;;;5056124;28;20036;-78
2021/11/17 05:33:40;;;;;;;24.13;16.30;;;;;;;;;;5020376;28;20049;-78
2021/11/17 05:39:40;;;;;;;29.00;17.75;;;;;;;;;;5056006;28;20507;-78
2021/11/17 05:42:32;;;;;;;28.05;18.63;;;;;;;;;;5055927;28;20033;-78
2021/11/17 05:45:08;;;;;;;36.97;22.10;;;;;;;;;;5055730;28;20037;-77
2021/11/17 05:47:42;;;;;;;49.22;31.65;;;;;;;;;;5037902;28;20112;-79
2021/11/17 05:50:11;;;;;;;39.65;27.77;;;;;;;;;;5055448;28;20485;-80
2021/11/17 05:52:39;;;;;;;33.75;21.88;;;;;;;;;;5037622;28;20441;-78
2021/11/17 05:55:06;;;;;;;29.33;19.70;;;;;;;;;;5055329;28;20033;-79
2021/11/17 05:57:32;;;;;;;28.35;18.25;;;;;;;;;;5055395;28;20021;-75
2021/11/17 06:00:15;;;;;;;23.83;16.33;;;;;;;;;;5037624;28;20461;-75
2021/11/17 06:03:04;;;;;;;20.77;14.40;;;;;;;;;;5021119;28;20041;-76
2021/11/17 06:05:29;;;;;;;24.25;16.42;;;;;;;;;;5055143;28;20041;-77
2021/11/17 06:07:56;;;;;;;29.45;18.55;;;;;;;;;;5055424;28;20495;-75
2021/11/17 06:10:33;;;;;;;20.30;15.40;;;;;;;;;;5037517;28;20045;-75
2021/11/17 06:12:58;;;;;;;24.27;15.70;;;;;;;;;;5055287;28;20032;-76
2021/11/17 06:15:24;;;;;;;24.33;16.02;;;;;;;;;;5055206;28;20079;-74
2021/11/17 06:17:52;;;;;;;27.23;18.13;;;;;;;;;;5055121;28;20037;-75
2021/11/17 06:20:19;;;;;;;32.60;21.00;;;;;;;;;;5055018;28;20039;-71
2021/11/17 06:22:46;;;;;;;42.75;24.05;;;;;;;;;;5054923;28;20190;-70
2021/11/17 06:25:12;;;;;;;25.80;17.88;;;;;;;;;;5055061;28;20017;-71
2021/11/17 06:27:40;;;;;;;26.58;17.42;;;;;;;;;;5054985;28;20477;-71
2021/11/17 06:30:07;;;;;;;25.65;15.55;;;;;;;;;;5037014;28;20028;-71
2021/11/17 06:32:32;;;;;;;24.70;16.10;;;;;;;;;;5036905;28;20516;-71
2021/11/17 06:35:00;;;;;;;32.00;19.55;;;;;;;;;;5036863;28;20049;-71
2021/11/17 06:37:27;;;;;;;31.95;18.95;;;;;;;;;;5054608;28;20033;-71
2021/11/17 06:39:54;;;;;;;29.75;18.27;;;;;;;;;;5054672;28;20033;-71
2021/11/17 06:42:25;;;;;;;28.20;17.73;;;;;;;;;;5054512;28;20087;-71
2021/11/17 06:44:52;;;;;;;28.95;17.90;;;;;;;;;;5054429;28;20511;-71
2021/11/17 06:47:18;;;;;;;31.90;19.90;;;;;;;;;;5054542;28;20065;-72
2021/11/17 06:49:44;;;;;;;33.38;21.05;;;;;;;;;;5054467;28;20037;-72
2021/11/17 06:52:09;;;;;;;38.85;22.08;;;;;;;;;;5054182;28;20084;-72
2021/11/17 06:54:35;;;;;;;39.47;24.30;;;;;;;;;;5054505;28;20055;-70
2021/11/17 06:57:00;;;;;;;43.15;24.95;;;;;;;;;;5054267;28;20120;-70
2021/11/17 06:59:26;;;;;;;39.90;24.55;;;;;;;;;;5054278;28;20392;-70
2021/11/17 07:01:51;;;;;;;51.60;28.55;;;;;;;;;;5054292;28;20047;-70
2021/11/17 07:04:17;;;;;;;58.05;33.97;;;;;;;;;;5054223;28;20065;-70
2021/11/17 07:06:43;;;;;;;60.45;35.95;;;;;;;;;;5053596;28;20037;-70
2021/11/17 07:09:09;;;;;;;48.47;28.48;;;;;;;;;;5054288;28;20400;-70
2021/11/17 07:11:38;;;;;;;38.83;23.98;;;;;;;;;;5054215;28;20025;-71
2021/11/17 07:14:10;;;;;;;33.17;22.55;;;;;;;;;;5054002;28;20041;-70
2021/11/17 07:16:38;;;;;;;43.22;30.85;;;;;;;;;;5036168;28;20067;-70
2021/11/17 07:19:05;;;;;;;39.95;28.90;;;;;;;;;;5054105;28;20428;-70
2021/11/17 07:21:31;;;;;;;42.65;27.67;;;;;;;;;;5053928;28;20120;-70
2021/11/17 07:23:56;;;;;;;40.28;24.05;;;;;;;;;;5053769;28;20116;-70
2021/11/17 07:26:22;;;;;;;41.58;26.08;;;;;;;;;;5053862;28;20132;-70
2021/11/17 07:28:48;;;;;;;44.75;29.27;;;;;;;;;;5053863;28;20033;-71
2021/11/17 07:31:13;;;;;;;49.53;30.65;;;;;;;;;;5053912;28;20045;-70
2021/11/17 07:33:41;;;;;;;46.95;30.27;;;;;;;;;;5053958;28;20428;-70
2021/11/17 07:36:06;;;;;;;40.40;27.27;;;;;;;;;;5053930;28;20084;-70
2021/11/17 07:38:32;;;;;;;43.38;28.42;;;;;;;;;;5053884;28;20490;-70
2021/11/17 07:40:58;;;;;;;46.15;27.25;;;;;;;;;;5053585;28;20037;-70
2021/11/17 07:43:24;;;;;;;41.05;25.80;;;;;;;;;;5053470;28;20536;-70
2021/11/17 07:45:50;;;;;;;34.63;23.35;;;;;;;;;;5035515;28;20094;-70
2021/11/17 07:48:16;;;;;;;37.95;24.05;;;;;;;;;;5053135;28;20028;-70
2021/11/17 07:50:43;;;;;;;43.20;24.60;;;;;;;;;;5053093;28;20041;-70
2021/11/17 07:53:09;;;;;;;42.05;26.00;;;;;;;;;;5053466;28;20025;-70
2021/11/17 07:55:37;;;;;;;43.70;27.13;;;;;;;;;;5053266;28;20033;-70
2021/11/17 07:58:03;;;;;;;51.38;33.35;;;;;;;;;;5053255;28;20052;-70
2021/11/17 08:00:29;;;;;;;60.63;37.72;;;;;;;;;;5053207;28;20452;-70
2021/11/17 08:02:55;;;;;;;73.85;45.75;;;;;;;;;;5053156;28;20052;-70
2021/11/17 08:05:22;;;;;;;69.93;43.42;;;;;;;;;;5035234;28;20064;-70
2021/11/17 08:07:48;;;;;;;60.60;40.65;;;;;;;;;;5035491;28;20036;-71
2021/11/17 08:10:16;;;;;;;69.78;43.35;;;;;;;;;;5053072;28;20044;-70
2021/11/17 08:12:42;;;;;;;67.72;40.38;;;;;;;;;;5052809;28;20029;-70
2021/11/17 08:15:07;;;;;;;56.53;35.58;;;;;;;;;;5053608;28;20041;-71
2021/11/17 08:17:33;;;;;;;47.78;31.10;;;;;;;;;;5053301;28;20112;-71
2021/11/17 08:20:00;;;;;;;49.45;32.08;;;;;;;;;;5053164;28;20045;-71
2021/11/17 08:22:26;;;;;;;48.92;30.10;;;;;;;;;;5053439;28;20048;-71
2021/11/17 08:24:51;;;;;;;58.80;36.58;;;;;;;;;;5053452;28;20397;-71
2021/11/17 08:27:21;;;;;;;64.32;39.10;;;;;;;;;;5052926;28;20048;-71
2021/11/17 08:29:47;;;;;;;58.73;38.30;;;;;;;;;;5052873;28;20051;-71
2021/11/17 08:32:13;;;;;;;45.38;27.92;;;;;;;;;;5052857;28;20043;-71
2021/11/17 08:34:39;;;;;;;43.63;25.88;;;;;;;;;;5052266;28;20045;-71
2021/11/17 08:37:05;;;;;;;47.47;27.45;;;;;;;;;;5052674;28;20099;-71
2021/11/17 08:39:30;;;;;;;63.13;33.00;;;;;;;;;;5052491;28;20061;-70
2021/11/17 08:41:56;;;;;;;67.57;36.10;;;;;;;;;;5052317;28;20391;-71
2021/11/17 08:44:21;;;;;;;70.78;34.83;;;;;;;;;;5052677;28;20120;-70
2021/11/17 08:46:47;;;;;;;51.28;27.42;;;;;;;;;;5034768;28;20033;-70
2021/11/17 08:49:12;;;;;;;62.50;31.63;;;;;;;;;;5052707;28;20086;-70
2021/11/17 08:51:38;;;;;;;84.05;40.13;;;;;;;;;;5034781;28;20063;-70
2021/11/17 08:54:04;;;;;;;95.35;48.88;;;;;;;;;;5052551;28;20500;-70
2021/11/17 08:56:31;;;;;;;69.15;38.33;;;;;;;;;;5052563;28;20119;-70
2021/11/17 08:58:57;;;;;;;45.60;27.25;;;;;;;;;;5052727;28;20037;-71
2021/11/17 09:01:22;;;;;;;54.00;32.38;;;;;;;;;;5052675;28;20501;-70
2021/11/17 09:03:48;;;;;;;67.82;39.30;;;;;;;;;;5052798;28;20033;-70
2021/11/17 09:06:13;;;;;;;62.60;37.28;;;;;;;;;;5052745;28;20064;-70
2021/11/17 09:08:41;;;;;;;66.47;40.28;;;;;;;;;;5052681;28;20032;-71
2021/11/17 09:11:08;;;;;;;69.82;43.90;;;;;;;;;;5052681;28;20412;-71
2021/11/17 09:13:34;;;;;;;54.75;35.03;;;;;;;;;;5052558;28;20527;-71
2021/11/17 09:16:00;;;;;;;45.92;27.63;;;;;;;;;;5052286;28;20025;-71
2021/11/17 09:18:27;;;;;;;40.92;26.10;;;;;;;;;;5052525;28;20090;-71
2021/11/17 09:20:54;;;;;;;38.33;24.45;;;;;;;;;;5034573;28;20036;-71
2021/11/17 09:23:19;;;;;;;38.03;23.83;;;;;;;;;;5052395;28;20033;-70
2021/11/17 09:25:46;;;;;;;35.63;21.83;;;;;;;;;;5052463;28;20075;-71
2021/11/17 09:28:12;;;;;;;36.33;22.10;;;;;;;;;;5034786;28;20471;-72
2021/11/17 09:30:39;;;;;;;36.47;20.65;;;;;;;;;;5054017;28;20025;-71
2021/11/17 09:33:06;;;;;;;32.90;20.08;;;;;;;;;;5055971;28;20041;-72
2021/11/17 09:35:33;;;;;;;30.52;19.00;;;;;;;;;;5055684;28;20404;-73
2021/11/17 09:38:00;;;;;;;31.48;18.85;;;;;;;;;;5055367;28;20041;-73
2021/11/17 09:40:27;;;;;;;31.75;20.85;;;;;;;;;;5055788;28;20463;-73
2021/11/17 09:42:54;;;;;;;32.05;19.90;;;;;;;;;;5056004;28;20485;-73
2021/11/17 09:45:20;;;;;;;34.17;22.85;;;;;;;;;;5055871;28;20025;-73
2021/11/17 09:47:45;;;;;;;32.35;20.50;;;;;;;;;;5055768;28;20033;-73
2021/11/17 09:50:14;;;;;;;31.40;20.50;;;;;;;;;;5037792;28;20029;-72
2021/11/17 09:52:46;;;;;;;33.28;21.00;;;;;;;;;;5055605;28;20040;-72
2021/11/17 09:55:12;;;;;;;37.97;21.58;;;;;;;;;;5055586;28;20037;-73
2021/11/17 09:57:41;;;;;;;40.58;25.10;;;;;;;;;;5055590;28;20036;-72
2021/11/17 10:00:10;;;;;;;40.33;24.50;;;;;;;;;;5055574;28;20029;-72
2021/11/17 10:02:42;;;;;;;38.63;24.23;;;;;;;;;;5055432;28;20479;-71
2021/11/17 10:05:11;;;;;;;35.47;23.63;;;;;;;;;;5055367;28;20119;-72
2021/11/17 10:13:33;;;;;;;34.20;22.75;;;;;;;;;;5055411;28;20400;-71
2021/11/17 10:15:59;;;;;;;30.40;21.05;;;;;;;;;;5037222;28;20500;-71
2021/11/17 10:18:33;;;;;;;35.85;21.83;;;;;;;;;;5055241;28;20033;-71
2021/11/17 10:21:19;;;;;;;32.78;22.00;;;;;;;;;;5055209;28;20029;-72
2021/11/17 10:24:03;;;;;;;28.13;17.90;;;;;;;;;;5040973;28;20045;-72
2021/11/17 10:26:29;;;;;;;28.40;18.25;;;;;;;;;;5054989;28;20119;-72
2021/11/17 10:29:04;;;;;;;30.05;18.50;;;;;;;;;;5054992;28;20116;-72
2021/11/17 10:31:29;;;;;;;28.70;18.60;;;;;;;;;;5054787;28;20033;-72
2021/11/17 10:34:13;;;;;;;27.33;18.23;;;;;;;;;;5054537;28;20080;-71
2021/11/17 10:36:49;;;;;;;27.73;17.77;;;;;;;;;;5054744;28;20049;-72
2021/11/17 10:39:20;;;;;;;27.50;18.50;;;;;;;;;;5054820;28;20029;-72
2021/11/17 10:41:56;;;;;;;26.08;17.75;;;;;;;;;;5053854;28;20029;-72
2021/11/17 10:44:40;;;;;;;26.70;17.73;;;;;;;;;;5054651;28;20037;-71
2021/11/17 10:47:25;;;;;;;26.48;16.98;;;;;;;;;;5054563;28;20123;-72
2021/11/17 10:49:54;;;;;;;26.23;18.02;;;;;;;;;;5040582;28;20484;-71
2021/11/17 10:52:24;;;;;;;27.48;18.80;;;;;;;;;;5054556;28;20036;-71
2021/11/17 10:54:49;;;;;;;;;;;;;;;;;;5054866;28;20041;-72
2021/11/17 10:57:21;;;;;;;21.58;15.43;;;;;;;;;;5036504;28;19954;-71
2021/11/17 10:59:47;;;;;;;26.50;17.77;;;;;;;;;;5054299;28;20029;-72
2021/11/17 11:02:13;;;;;;;23.27;17.02;;;;;;;;;;5053452;28;20032;-71
2021/11/17 11:04:41;;;;;;;29.63;18.63;;;;;;;;;;5054158;28;20125;-71
2021/11/17 11:07:19;;;;;;;35.45;22.55;;;;;;;;;;5045103;28;20029;-72
2021/11/17 11:09:54;;;;;;;33.08;23.75;;;;;;;;;;5048549;28;20041;-71
2021/11/17 11:12:20;;;;;;;26.00;17.73;;;;;;;;;;5048613;28;20037;-71
2021/11/17 11:14:53;;;;;;;25.02;16.65;;;;;;;;;;5038682;28;20558;-72
2021/11/17 11:17:37;;;;;;;23.20;16.35;;;;;;;;;;5054078;28;20503;-72
2021/11/17 11:20:15;;;;;;;24.60;17.67;;;;;;;;;;5053970;28;20033;-71
2021/11/17 11:23:01;;;;;;;23.35;16.48;;;;;;;;;;5050279;28;20040;-71
2021/11/17 11:25:41;;;;;;;24.27;17.70;;;;;;;;;;5035828;28;20044;-71
2021/11/17 11:28:22;;;;;;;25.50;17.65;;;;;;;;;;5053585;28;20029;-71
2021/11/17 11:30:48;;;;;;;27.02;18.88;;;;;;;;;;5029576;28;20095;-71
2021/11/17 11:33:19;;;;;;;28.48;19.15;;;;;;;;;;5014048;28;20022;-71
2021/11/17 11:36:04;;;;;;;31.45;20.27;;;;;;;;;;5031638;28;20050;-71
2021/11/17 11:38:31;;;;;;;25.25;17.30;;;;;;;;;;5033791;28;20038;-71
2021/11/17 11:41:00;;;;;;;29.75;18.73;;;;;;;;;;5033701;28;20030;-71
2021/11/17 11:43:26;;;;;;;27.60;18.67;;;;;;;;;;5033568;28;20041;-71
2021/11/17 11:45:52;;;;;;;26.30;17.77;;;;;;;;;;5033578;28;20116;-71
2021/11/17 11:48:24;;;;;;;25.75;19.00;;;;;;;;;;5032904;28;20025;-71
2021/11/17 11:54:28;;;;;;;29.52;21.08;;;;;;;;;;5034000;28;20096;-71
2021/11/17 12:00:34;;;;;;;30.83;20.77;;;;;;;;;;5034171;28;20029;-71
2021/11/17 12:06:45;;;;;;;29.95;20.00;;;;;;;;;;5033956;28;20524;-71
2021/11/17 12:09:17;;;;;;;30.42;20.65;;;;;;;;;;5033074;28;20044;-71
2021/11/17 12:11:48;;;;;;;34.45;22.10;;;;;;;;;;5033879;28;20068;-71
2021/11/17 12:14:24;;;;;;;28.45;18.98;;;;;;;;;;5033590;28;20124;-71
2021/11/17 12:20:28;;;;;;;27.35;19.65;;;;;;;;;;5033873;28;20040;-71
2021/11/17 12:26:28;;;;;;;26.83;20.50;;;;;;;;;;5033812;28;20101;-71
2021/11/17 12:29:01;;;;;;;34.28;22.55;;;;;;;;;;5032866;28;20033;-71
2021/11/17 12:31:29;;;;;;;32.22;22.60;;;;;;;;;;5033137;28;20037;-71
2021/11/17 12:34:00;;;;;;;35.30;22.58;;;;;;;;;;5015621;28;20056;-71
2021/11/17 12:36:26;;;;;;;35.65;24.35;;;;;;;;;;5033701;28;20048;-71
2021/11/17 12:49:16;;;;;;;51.60;33.13;;;;;;;;;;5033348;28;20100;-71
2021/11/17 12:55:20;;;;;;;38.70;25.80;;;;;;;;;;5033560;28;20488;-76
2021/11/17 13:01:29;;;;;;;37.58;24.13;;;;;;;;;;5033236;28;20063;-76
2021/11/17 13:07:35;;;;;;;32.50;22.02;;;;;;;;;;5037353;28;20052;-77
2021/11/17 13:13:38;;;;;;;32.22;20.92;;;;;;;;;;5036968;28;20032;-78
2021/11/17 13:19:40;;;;;;;58.88;40.08;;;;;;;;;;5037142;28;20075;-77
2021/11/17 13:32:53;;;;;;;42.20;28.27;;;;;;;;;;5036884;28;20020;-77
2021/11/17 13:38:54;;;;;;;58.40;40.97;;;;;;;;;;5036022;28;20543;-76
2021/11/17 13:41:20;;;;;;;57.20;37.17;;;;;;;;;;5036054;28;20048;-76
2021/11/17 13:43:45;;;;;;;53.10;35.63;;;;;;;;;;5036002;28;20116;-76
2021/11/17 13:46:20;;;;;;;76.45;40.03;;;;;;;;;;5035610;28;20072;-76
2021/11/17 13:48:48;;;;;;;72.35;41.20;;;;;;;;;;5035920;28;20094;-76
2021/11/17 13:51:14;;;;;;;61.25;37.70;;;;;;;;;;5035804;28;20052;-75
2021/11/17 13:53:41;;;;;;;66.10;40.60;;;;;;;;;;5035951;28;20033;-77
2021/11/17 13:59:09;;;;;;;101.78;56.60;;;;;;;;;;5035981;28;20064;-78
2021/11/17 14:01:45;;;;;;;101.45;52.78;;;;;;;;;;5036144;28;20496;-77
2021/11/17 14:04:12;;;;;;;103.05;55.60;;;;;;;;;;5035558;28;20540;-76
2021/11/17 14:06:38;;;;;;;87.82;47.40;;;;;;;;;;5035751;28;20033;-76
2021/11/17 14:09:04;;;;;;;59.15;34.72;;;;;;;;;;5036120;28;20374;-75
2021/11/17 14:11:33;;;;;;;64.97;35.10;;;;;;;;;;5035908;28;20029;-75
2021/11/17 14:14:04;;;;;;;63.83;36.15;;;;;;;;;;5055000;28;20040;-75
2021/11/17 14:16:31;;;;;;;56.95;33.45;;;;;;;;;;5055653;28;20536;-75
2021/11/17 14:18:58;;;;;;;50.88;32.03;;;;;;;;;;5055298;28;20025;-75
2021/11/17 14:21:25;;;;;;;49.55;29.90;;;;;;;;;;5055123;28;20044;-75
2021/11/17 14:23:51;;;;;;;48.40;28.63;;;;;;;;;;5037936;28;20068;-75
2021/11/17 14:26:18;;;;;;;44.47;26.58;;;;;;;;;;5055682;28;20114;-75
2021/11/17 14:28:50;;;;;;;49.30;32.55;;;;;;;;;;5037082;28;20036;-75
2021/11/17 14:31:17;;;;;;;64.07;38.33;;;;;;;;;;5036506;28;20037;-75
2021/11/17 14:33:48;;;;;;;77.18;44.25;;;;;;;;;;5036289;28;20116;-75
2021/11/17 14:36:14;;;;;;;92.28;51.58;;;;;;;;;;5054171;28;20036;-75
2021/11/17 14:38:40;;;;;;;84.85;47.15;;;;;;;;;;5054050;28;20033;-75
2021/11/17 14:41:06;;;;;;;107.13;60.35;;;;;;;;;;5053402;28;20032;-75
2021/11/17 14:43:32;;;;;;;115.22;62.17;;;;;;;;;;5053478;28;20033;-75
2021/11/17 14:45:57;;;;;;;124.75;67.35;;;;;;;;;;5054080;28;20041;-75
2021/11/17 14:48:23;;;;;;;131.48;75.45;;;;;;;;;;5053691;28;20025;-75
2021/11/17 14:50:50;;;;;;;130.45;71.55;;;;;;;;;;5054467;28;20041;-74
2021/11/17 14:53:15;;;;;;;111.78;63.50;;;;;;;;;;5054610;28;20076;-74
2021/11/17 14:55:41;;;;;;;109.18;57.13;;;;;;;;;;5036703;28;20048;-74
2021/11/17 14:58:07;;;;;;;102.93;55.35;;;;;;;;;;5054421;28;20055;-75
2021/11/17 15:00:34;;;;;;;106.00;56.33;;;;;;;;;;5036675;28;20484;-74
2021/11/17 15:02:59;;;;;;;102.57;55.92;;;;;;;;;;5054485;28;20025;-75
2021/11/17 15:05:30;;;;;;;107.88;55.67;;;;;;;;;;5036526;28;20033;-75
2021/11/17 15:07:56;;;;;;;95.75;53.20;;;;;;;;;;5054390;28;20036;-75
2021/11/17 15:10:22;;;;;;;88.63;51.72;;;;;;;;;;5054356;28;20116;-74
2021/11/17 15:12:47;;;;;;;65.25;40.47;;;;;;;;;;5054259;28;20068;-75
2021/11/17 15:15:18;;;;;;;61.55;38.22;;;;;;;;;;5053934;28;20033;-75
2021/11/17 15:17:44;;;;;;;71.15;40.05;;;;;;;;;;5054087;28;20135;-74
2021/11/17 15:20:10;;;;;;;66.25;39.38;;;;;;;;;;5054078;28;20136;-74
2021/11/17 15:22:40;;;;;;;72.85;38.15;;;;;;;;;;5054115;28;20036;-74
2021/11/17 15:25:06;;;;;;;65.25;37.60;;;;;;;;;;5054040;28;20037;-75
2021/11/17 15:27:34;;;;;;;69.03;38.88;;;;;;;;;;5053372;28;20136;-75
2021/11/17 15:30:00;;;;;;;77.40;40.78;;;;;;;;;;5054003;28;20033;-75
2021/11/17 15:32:26;;;;;;;80.28;43.33;;;;;;;;;;5035890;28;20435;-74
2021/11/17 15:34:51;;;;;;;93.20;48.25;;;;;;;;;;5053764;28;20033;-74
2021/11/17 15:37:17;;;;;;;88.90;49.70;;;;;;;;;;5053331;28;20499;-74
2021/11/17 15:39:43;;;;;;;103.70;54.95;;;;;;;;;;5053633;28;20037;-74
2021/11/17 15:42:09;;;;;;;112.05;58.53;;;;;;;;;;5053621;28;20079;-74
2021/11/17 15:44:34;;;;;;;114.80;59.88;;;;;;;;;;5035861;28;20037;-74
2021/11/17 15:47:01;;;;;;;129.38;64.85;;;;;;;;;;5053556;28;20083;-75
2021/11/17 15:49:28;;;;;;;132.60;67.53;;;;;;;;;;5035501;28;20041;-74
2021/11/17 15:51:53;;;;;;;116.85;63.65;;;;;;;;;;5053348;28;20025;-74
2021/11/17 15:54:19;;;;;;;106.03;57.35;;;;;;;;;;5053541;28;20128;-75
2021/11/17 15:56:45;;;;;;;103.68;55.88;;;;;;;;;;5053351;28;20044;-75
2021/11/17 15:59:12;;;;;;;100.43;55.35;;;;;;;;;;5035501;28;20037;-74
2021/11/17 16:01:38;;;;;;;103.18;55.58;;;;;;;;;;5053258;28;20087;-74
2021/11/17 16:04:04;;;;;;;99.18;56.38;;;;;;;;;;5035425;28;20604;-75
2021/11/17 16:06:31;;;;;;;99.38;53.20;;;;;;;;;;5053320;28;20119;-75
2021/11/17 16:08:57;;;;;;;100.47;51.60;;;;;;;;;;5053130;28;20508;-75
2021/11/17 16:11:22;;;;;;;98.90;51.33;;;;;;;;;;5053006;28;20033;-74
2021/11/17 16:13:49;;;;;;;102.40;51.05;;;;;;;;;;5053053;28;20120;-74
2021/11/17 16:16:14;;;;;;;94.18;49.15;;;;;;;;;;5053068;28;20049;-74
2021/11/17 16:18:40;;;;;;;98.70;50.00;;;;;;;;;;5053169;28;20476;-74
2021/11/17 16:21:06;;;;;;;95.28;47.40;;;;;;;;;;5053115;28;20021;-75
2021/11/17 16:26:26;;;;;;;72.40;40.38;;;;;;;;;;5052921;28;20041;-74
2021/11/17 16:28:53;;;;;;;69.93;38.78;;;;;;;;;;5034845;28;20107;-74
2021/11/17 16:31:21;;;;;;;80.07;44.08;;;;;;;;;;5052972;28;20464;-74
2021/11/17 16:33:46;;;;;;;102.47;54.13;;;;;;;;;;5053368;28;20037;-75
2021/11/17 16:36:12;;;;;;;120.88;61.55;;;;;;;;;;5053313;28;20084;-73
2021/11/17 16:38:44;;;;;;;108.78;58.38;;;;;;;;;;5052733;28;20040;-73
2021/11/17 16:41:12;;;;;;;88.55;48.03;;;;;;;;;;5056354;28;20040;-73
2021/11/17 16:43:38;;;;;;;83.50;46.65;;;;;;;;;;5039575;28;20039;-73
2021/11/17 16:46:04;;;;;;;78.25;46.25;;;;;;;;;;5056847;28;20116;-73
2021/11/17 16:48:29;;;;;;;77.10;46.70;;;;;;;;;;5057031;28;20078;-73
2021/11/17 16:50:56;;;;;;;83.05;49.38;;;;;;;;;;5039107;28;20484;-73
2021/11/17 16:53:21;;;;;;;83.85;50.33;;;;;;;;;;5056877;28;20025;-73
2021/11/17 16:55:47;;;;;;;80.45;46.70;;;;;;;;;;5056811;28;20040;-73
2021/11/17 16:58:14;;;;;;;73.75;43.50;;;;;;;;;;5056632;28;20480;-73
2021/11/17 17:00:42;;;;;;;78.18;45.97;;;;;;;;;;5056447;28;20037;-75
2021/11/17 17:03:12;;;;;;;81.40;47.95;;;;;;;;;;5056122;28;20088;-75
2021/11/17 17:05:38;;;;;;;75.60;46.80;;;;;;;;;;5056551;28;20447;-75
2021/11/17 17:08:04;;;;;;;76.68;46.33;;;;;;;;;;5056617;28;20040;-75
2021/11/17 17:10:30;;;;;;;88.53;50.15;;;;;;;;;;5056241;28;20067;-75
2021/11/17 17:12:56;;;;;;;94.68;52.75;;;;;;;;;;5056374;28;20452;-76
2021/11/17 17:15:24;;;;;;;107.60;61.22;;;;;;;;;;5038588;28;20064;-75
2021/11/17 17:17:50;;;;;;;117.35;65.38;;;;;;;;;;5055288;28;20358;-76
2021/11/17 17:20:18;;;;;;;112.35;65.15;;;;;;;;;;5056803;28;20091;-76
2021/11/17 17:22:44;;;;;;;116.32;65.00;;;;;;;;;;5056311;28;20079;-76
2021/11/17 17:25:11;;;;;;;116.30;67.15;;;;;;;;;;5056641;28;20392;-76
2021/11/17 17:27:39;;;;;;;131.40;75.32;;;;;;;;;;5056333;28;20025;-76
2021/11/17 17:30:08;;;;;;;112.20;63.72;;;;;;;;;;5056812;28;20033;-76
2021/11/17 17:32:33;;;;;;;118.38;71.50;;;;;;;;;;5056192;28;20048;-75
2021/11/17 17:34:59;;;;;;;116.80;72.45;;;;;;;;;;5056121;28;20473;-76
2021/11/17 17:37:25;;;;;;;92.40;57.55;;;;;;;;;;5055560;28;20036;-76
2021/11/17 17:39:51;;;;;;;97.28;56.17;;;;;;;;;;5056277;28;20033;-76
2021/11/17 17:42:19;;;;;;;100.55;56.72;;;;;;;;;;5056509;28;20462;-76
2021/11/17 17:44:48;;;;;;;101.13;58.53;;;;;;;;;;5038759;28;20029;-76
2021/11/17 17:47:13;;;;;;;91.32;53.13;;;;;;;;;;5021762;28;20052;-76
2021/11/17 17:49:40;;;;;;;99.30;56.28;;;;;;;;;;5055913;28;20037;-76
2021/11/17 17:52:06;;;;;;;91.72;52.08;;;;;;;;;;5055739;28;20033;-75
2021/11/17 17:54:32;;;;;;;92.57;54.42;;;;;;;;;;5055935;28;20041;-76
2021/11/17 17:56:57;;;;;;;128.18;71.53;;;;;;;;;;5055539;28;20041;-76
2021/11/17 17:59:24;;;;;;;100.93;56.20;;;;;;;;;;5037946;28;20064;-76
2021/11/17 18:01:52;;;;;;;84.13;49.72;;;;;;;;;;5055766;28;20108;-76
2021/11/17 18:04:27;;;;;;;76.13;44.90;;;;;;;;;;5039439;28;20029;-76
2021/11/17 18:06:53;;;;;;;70.97;42.22;;;;;;;;;;5038394;28;20456;-76
2021/11/17 18:09:18;;;;;;;71.43;40.53;;;;;;;;;;5055606;28;20108;-76
2021/11/17 18:11:44;;;;;;;67.53;39.20;;;;;;;;;;5055384;28;20052;-76
2021/11/17 18:14:10;;;;;;;68.38;40.75;;;;;;;;;;5055598;28;20060;-76
2021/11/17 18:16:35;;;;;;;70.03;40.13;;;;;;;;;;5055410;28;20416;-75